sensor_id;sensor_type;location;lat;lon;timestamp;P1;durP1;ratioP1;P2;durP2;ratioP2
22778;SDS011;11556;51.194;3.800;2024-01-30T00:01:13;10.68;;;6.45;;
22778;SDS011;11556;51.194;3.800;2024-01-30T00:03:38;9.18;;;6.60;;
22778;SDS011;11556;51.194;3.800;2024-01-30T00:06:04;11.25;;;6.85;;
22778;SDS011;11556;51.194;3.800;2024-01-30T00:08:30;10.25;;;6.82;;
22778;SDS011;11556;51.194;3.800;2024-01-30T00:10:55;9.43;;;6.57;;
22778;SDS011;11556;51.194;3.800;2024-01-30T00:13:21;11.05;;;6.45;;
22778;SDS011;11556;51.194;3.800;2024-01-30T00:15:47;9.95;;;6.47;;
22778;SDS011;11556;51.194;3.800;2024-01-30T00:18:13;11.18;;;7.00;;
22778;SDS011;11556;51.194;3.800;2024-01-30T00:20:40;12.23;;;7.20;;
22778;SDS011;11556;51.194;3.800;2024-01-30T00:23:06;8.73;;;6.93;;
22778;SDS011;11556;51.194;3.800;2024-01-30T00:25:31;11.07;;;6.88;;
22778;SDS011;11556;51.194;3.800;2024-01-30T00:27:58;11.23;;;7.30;;
22778;SDS011;11556;51.194;3.800;2024-01-30T00:30:24;9.38;;;7.07;;
22778;SDS011;11556;51.194;3.800;2024-01-30T00:32:49;9.85;;;6.95;;
22778;SDS011;11556;51.194;3.800;2024-01-30T00:35:15;11.00;;;6.93;;
22778;SDS011;11556;51.194;3.800;2024-01-30T00:37:41;11.48;;;7.10;;
22778;SDS011;11556;51.194;3.800;2024-01-30T00:40:07;9.48;;;7.20;;
22778;SDS011;11556;51.194;3.800;2024-01-30T00:42:35;10.57;;;6.68;;
22778;SDS011;11556;51.194;3.800;2024-01-30T00:45:01;8.63;;;6.68;;
22778;SDS011;11556;51.194;3.800;2024-01-30T00:47:27;11.18;;;7.15;;
22778;SDS011;11556;51.194;3.800;2024-01-30T00:49:54;12.48;;;7.07;;
22778;SDS011;11556;51.194;3.800;2024-01-30T00:52:19;12.63;;;7.22;;
22778;SDS011;11556;51.194;3.800;2024-01-30T00:54:45;10.60;;;7.22;;
22778;SDS011;11556;51.194;3.800;2024-01-30T00:57:11;10.55;;;7.35;;
22778;SDS011;11556;51.194;3.800;2024-01-30T00:59:36;9.35;;;6.90;;
22778;SDS011;11556;51.194;3.800;2024-01-30T01:02:02;11.23;;;7.10;;
22778;SDS011;11556;51.194;3.800;2024-01-30T01:04:29;12.00;;;7.28;;
22778;SDS011;11556;51.194;3.800;2024-01-30T01:06:54;11.52;;;7.93;;
22778;SDS011;11556;51.194;3.800;2024-01-30T01:09:20;11.25;;;7.63;;
22778;SDS011;11556;51.194;3.800;2024-01-30T01:11:46;10.85;;;7.25;;
22778;SDS011;11556;51.194;3.800;2024-01-30T01:14:11;9.45;;;7.20;;
22778;SDS011;11556;51.194;3.800;2024-01-30T01:16:37;9.63;;;7.35;;
22778;SDS011;11556;51.194;3.800;2024-01-30T01:19:02;11.50;;;6.95;;
22778;SDS011;11556;51.194;3.800;2024-01-30T01:21:28;12.13;;;7.10;;
22778;SDS011;11556;51.194;3.800;2024-01-30T01:23:54;10.77;;;7.20;;
22778;SDS011;11556;51.194;3.800;2024-01-30T01:26:19;12.13;;;7.05;;
22778;SDS011;11556;51.194;3.800;2024-01-30T01:28:46;12.00;;;6.90;;
22778;SDS011;11556;51.194;3.800;2024-01-30T01:31:12;10.45;;;6.93;;
22778;SDS011;11556;51.194;3.800;2024-01-30T01:33:37;11.02;;;6.90;;
22778;SDS011;11556;51.194;3.800;2024-01-30T01:36:03;10.75;;;6.75;;
22778;SDS011;11556;51.194;3.800;2024-01-30T01:38:29;10.38;;;7.07;;
22778;SDS011;11556;51.194;3.800;2024-01-30T01:40:55;11.15;;;7.43;;
22778;SDS011;11556;51.194;3.800;2024-01-30T01:43:20;9.77;;;7.05;;
22778;SDS011;11556;51.194;3.800;2024-01-30T01:45:46;9.70;;;7.18;;
22778;SDS011;11556;51.194;3.800;2024-01-30T01:48:12;9.65;;;6.88;;
22778;SDS011;11556;51.194;3.800;2024-01-30T01:50:38;9.38;;;6.38;;
22778;SDS011;11556;51.194;3.800;2024-01-30T01:53:05;9.35;;;6.70;;
22778;SDS011;11556;51.194;3.800;2024-01-30T01:55:33;10.23;;;7.30;;
22778;SDS011;11556;51.194;3.800;2024-01-30T01:58:00;10.77;;;7.75;;
22778;SDS011;11556;51.194;3.800;2024-01-30T02:00:26;12.80;;;7.43;;
22778;SDS011;11556;51.194;3.800;2024-01-30T02:02:52;10.15;;;7.40;;
22778;SDS011;11556;51.194;3.800;2024-01-30T02:05:19;10.82;;;6.85;;
22778;SDS011;11556;51.194;3.800;2024-01-30T02:07:45;12.52;;;8.02;;
22778;SDS011;11556;51.194;3.800;2024-01-30T02:10:11;12.55;;;7.60;;
22778;SDS011;11556;51.194;3.800;2024-01-30T02:12:37;10.90;;;7.80;;
22778;SDS011;11556;51.194;3.800;2024-01-30T02:15:03;10.75;;;7.35;;
22778;SDS011;11556;51.194;3.800;2024-01-30T02:17:30;12.07;;;7.15;;
22778;SDS011;11556;51.194;3.800;2024-01-30T02:19:56;10.57;;;7.47;;
22778;SDS011;11556;51.194;3.800;2024-01-30T02:22:22;11.88;;;7.57;;
22778;SDS011;11556;51.194;3.800;2024-01-30T02:24:48;14.40;;;7.13;;
22778;SDS011;11556;51.194;3.800;2024-01-30T02:27:14;11.82;;;7.82;;
22778;SDS011;11556;51.194;3.800;2024-01-30T02:29:41;11.07;;;6.97;;
22778;SDS011;11556;51.194;3.800;2024-01-30T02:32:07;13.32;;;7.78;;
22778;SDS011;11556;51.194;3.800;2024-01-30T02:34:33;12.43;;;7.72;;
22778;SDS011;11556;51.194;3.800;2024-01-30T02:36:59;11.57;;;7.68;;
22778;SDS011;11556;51.194;3.800;2024-01-30T02:39:24;9.75;;;7.15;;
22778;SDS011;11556;51.194;3.800;2024-01-30T02:41:50;9.20;;;7.10;;
22778;SDS011;11556;51.194;3.800;2024-01-30T02:44:16;10.23;;;7.05;;
22778;SDS011;11556;51.194;3.800;2024-01-30T02:46:41;11.88;;;8.05;;
22778;SDS011;11556;51.194;3.800;2024-01-30T02:49:07;9.77;;;7.07;;
22778;SDS011;11556;51.194;3.800;2024-01-30T02:51:33;12.27;;;7.85;;
22778;SDS011;11556;51.194;3.800;2024-01-30T02:53:58;12.63;;;7.82;;
22778;SDS011;11556;51.194;3.800;2024-01-30T02:56:24;10.57;;;7.57;;
22778;SDS011;11556;51.194;3.800;2024-01-30T02:58:50;11.35;;;7.72;;
22778;SDS011;11556;51.194;3.800;2024-01-30T03:01:15;11.82;;;7.68;;
22778;SDS011;11556;51.194;3.800;2024-01-30T03:03:41;12.45;;;7.45;;
22778;SDS011;11556;51.194;3.800;2024-01-30T03:06:08;11.80;;;7.45;;
22778;SDS011;11556;51.194;3.800;2024-01-30T03:08:34;13.20;;;7.65;;
22778;SDS011;11556;51.194;3.800;2024-01-30T03:11:01;13.90;;;7.63;;
22778;SDS011;11556;51.194;3.800;2024-01-30T03:13:27;12.57;;;7.45;;
22778;SDS011;11556;51.194;3.800;2024-01-30T03:15:53;9.73;;;7.28;;
22778;SDS011;11556;51.194;3.800;2024-01-30T03:18:19;11.13;;;7.78;;
22778;SDS011;11556;51.194;3.800;2024-01-30T03:20:45;13.38;;;8.02;;
22778;SDS011;11556;51.194;3.800;2024-01-30T03:23:11;13.45;;;8.27;;
22778;SDS011;11556;51.194;3.800;2024-01-30T03:25:36;9.88;;;7.70;;
22778;SDS011;11556;51.194;3.800;2024-01-30T03:28:02;10.35;;;8.35;;
22778;SDS011;11556;51.194;3.800;2024-01-30T03:30:28;12.27;;;8.02;;
22778;SDS011;11556;51.194;3.800;2024-01-30T03:32:53;13.45;;;8.23;;
22778;SDS011;11556;51.194;3.800;2024-01-30T03:35:19;14.98;;;9.32;;
22778;SDS011;11556;51.194;3.800;2024-01-30T03:37:44;13.15;;;8.57;;
22778;SDS011;11556;51.194;3.800;2024-01-30T03:40:10;13.45;;;8.70;;
22778;SDS011;11556;51.194;3.800;2024-01-30T03:42:36;11.77;;;8.65;;
22778;SDS011;11556;51.194;3.800;2024-01-30T03:45:02;15.50;;;8.57;;
22778;SDS011;11556;51.194;3.800;2024-01-30T03:47:28;13.63;;;8.20;;
22778;SDS011;11556;51.194;3.800;2024-01-30T03:49:53;12.00;;;8.07;;
22778;SDS011;11556;51.194;3.800;2024-01-30T03:52:19;15.05;;;8.52;;
22778;SDS011;11556;51.194;3.800;2024-01-30T03:54:45;12.80;;;8.02;;
22778;SDS011;11556;51.194;3.800;2024-01-30T03:57:10;13.27;;;8.15;;
22778;SDS011;11556;51.194;3.800;2024-01-30T03:59:37;13.75;;;8.57;;
22778;SDS011;11556;51.194;3.800;2024-01-30T04:02:03;12.85;;;8.65;;
22778;SDS011;11556;51.194;3.800;2024-01-30T04:04:29;11.98;;;8.60;;
22778;SDS011;11556;51.194;3.800;2024-01-30T04:06:54;13.40;;;8.18;;
22778;SDS011;11556;51.194;3.800;2024-01-30T04:09:20;14.48;;;9.00;;
22778;SDS011;11556;51.194;3.800;2024-01-30T04:11:46;13.48;;;8.60;;
22778;SDS011;11556;51.194;3.800;2024-01-30T04:14:11;11.57;;;8.13;;
22778;SDS011;11556;51.194;3.800;2024-01-30T04:16:37;11.35;;;8.20;;
22778;SDS011;11556;51.194;3.800;2024-01-30T04:19:02;14.55;;;8.57;;
22778;SDS011;11556;51.194;3.800;2024-01-30T04:21:28;15.18;;;8.30;;
22778;SDS011;11556;51.194;3.800;2024-01-30T04:23:54;13.93;;;8.48;;
22778;SDS011;11556;51.194;3.800;2024-01-30T04:26:19;14.65;;;7.75;;
22778;SDS011;11556;51.194;3.800;2024-01-30T04:28:45;13.20;;;8.70;;
22778;SDS011;11556;51.194;3.800;2024-01-30T04:31:11;14.18;;;8.38;;
22778;SDS011;11556;51.194;3.800;2024-01-30T04:33:37;12.50;;;8.20;;
22778;SDS011;11556;51.194;3.800;2024-01-30T04:36:03;18.13;;;8.38;;
22778;SDS011;11556;51.194;3.800;2024-01-30T04:38:33;15.88;;;7.85;;
22778;SDS011;11556;51.194;3.800;2024-01-30T04:40:59;14.18;;;8.35;;
22778;SDS011;11556;51.194;3.800;2024-01-30T04:43:25;11.45;;;7.80;;
22778;SDS011;11556;51.194;3.800;2024-01-30T04:45:51;14.18;;;7.82;;
22778;SDS011;11556;51.194;3.800;2024-01-30T04:48:17;11.48;;;7.85;;
22778;SDS011;11556;51.194;3.800;2024-01-30T04:50:43;16.02;;;8.75;;
22778;SDS011;11556;51.194;3.800;2024-01-30T04:53:09;12.93;;;7.53;;
22778;SDS011;11556;51.194;3.800;2024-01-30T04:55:35;11.48;;;8.10;;
22778;SDS011;11556;51.194;3.800;2024-01-30T04:58:01;11.38;;;7.38;;
22778;SDS011;11556;51.194;3.800;2024-01-30T05:00:27;18.58;;;8.93;;
22778;SDS011;11556;51.194;3.800;2024-01-30T05:02:54;12.52;;;8.48;;
22778;SDS011;11556;51.194;3.800;2024-01-30T05:05:20;15.50;;;8.18;;
22778;SDS011;11556;51.194;3.800;2024-01-30T05:07:46;16.42;;;8.40;;
22778;SDS011;11556;51.194;3.800;2024-01-30T05:10:12;15.07;;;8.32;;
22778;SDS011;11556;51.194;3.800;2024-01-30T05:12:39;13.73;;;8.50;;
22778;SDS011;11556;51.194;3.800;2024-01-30T05:15:05;12.27;;;7.80;;
22778;SDS011;11556;51.194;3.800;2024-01-30T05:17:31;14.88;;;8.13;;
22778;SDS011;11556;51.194;3.800;2024-01-30T05:19:57;17.67;;;8.35;;
22778;SDS011;11556;51.194;3.800;2024-01-30T05:22:23;18.13;;;8.23;;
22778;SDS011;11556;51.194;3.800;2024-01-30T05:24:48;14.38;;;7.57;;
22778;SDS011;11556;51.194;3.800;2024-01-30T05:27:14;18.40;;;7.88;;
22778;SDS011;11556;51.194;3.800;2024-01-30T05:29:40;13.70;;;7.70;;
22778;SDS011;11556;51.194;3.800;2024-01-30T05:32:06;16.02;;;7.70;;
22778;SDS011;11556;51.194;3.800;2024-01-30T05:34:31;18.70;;;7.55;;
22778;SDS011;11556;51.194;3.800;2024-01-30T05:36:57;14.50;;;8.30;;
22778;SDS011;11556;51.194;3.800;2024-01-30T05:39:23;17.60;;;8.05;;
22778;SDS011;11556;51.194;3.800;2024-01-30T05:41:49;15.10;;;8.32;;
22778;SDS011;11556;51.194;3.800;2024-01-30T05:44:14;17.23;;;8.65;;
22778;SDS011;11556;51.194;3.800;2024-01-30T05:46:40;13.38;;;8.05;;
22778;SDS011;11556;51.194;3.800;2024-01-30T05:49:06;16.33;;;8.05;;
22778;SDS011;11556;51.194;3.800;2024-01-30T05:51:31;15.05;;;8.23;;
22778;SDS011;11556;51.194;3.800;2024-01-30T05:53:57;15.07;;;8.35;;
22778;SDS011;11556;51.194;3.800;2024-01-30T05:56:23;15.68;;;8.20;;
22778;SDS011;11556;51.194;3.800;2024-01-30T05:58:48;15.75;;;8.35;;
22778;SDS011;11556;51.194;3.800;2024-01-30T06:01:15;21.55;;;8.35;;
22778;SDS011;11556;51.194;3.800;2024-01-30T06:03:41;12.15;;;7.78;;
22778;SDS011;11556;51.194;3.800;2024-01-30T06:06:08;14.57;;;7.80;;
22778;SDS011;11556;51.194;3.800;2024-01-30T06:08:34;15.90;;;8.05;;
22778;SDS011;11556;51.194;3.800;2024-01-30T06:11:00;19.52;;;8.13;;
22778;SDS011;11556;51.194;3.800;2024-01-30T06:13:25;14.68;;;8.18;;
22778;SDS011;11556;51.194;3.800;2024-01-30T06:15:51;14.88;;;8.27;;
22778;SDS011;11556;51.194;3.800;2024-01-30T06:18:17;15.73;;;8.20;;
22778;SDS011;11556;51.194;3.800;2024-01-30T06:20:43;12.85;;;7.70;;
22778;SDS011;11556;51.194;3.800;2024-01-30T06:23:09;14.43;;;8.13;;
22778;SDS011;11556;51.194;3.800;2024-01-30T06:25:35;11.40;;;7.53;;
22778;SDS011;11556;51.194;3.800;2024-01-30T06:28:00;16.95;;;8.27;;
22778;SDS011;11556;51.194;3.800;2024-01-30T06:30:26;11.93;;;7.40;;
22778;SDS011;11556;51.194;3.800;2024-01-30T06:32:52;14.88;;;8.40;;
22778;SDS011;11556;51.194;3.800;2024-01-30T06:35:17;17.45;;;8.10;;
22778;SDS011;11556;51.194;3.800;2024-01-30T06:37:43;16.52;;;8.55;;
22778;SDS011;11556;51.194;3.800;2024-01-30T06:40:09;14.70;;;7.93;;
22778;SDS011;11556;51.194;3.800;2024-01-30T06:42:35;15.10;;;8.80;;
22778;SDS011;11556;51.194;3.800;2024-01-30T06:45:00;17.95;;;8.77;;
22778;SDS011;11556;51.194;3.800;2024-01-30T06:47:26;17.73;;;8.73;;
22778;SDS011;11556;51.194;3.800;2024-01-30T06:49:52;14.52;;;8.48;;
22778;SDS011;11556;51.194;3.800;2024-01-30T06:52:17;13.82;;;9.00;;
22778;SDS011;11556;51.194;3.800;2024-01-30T06:54:43;17.27;;;8.30;;
22778;SDS011;11556;51.194;3.800;2024-01-30T06:57:09;13.13;;;7.97;;
22778;SDS011;11556;51.194;3.800;2024-01-30T06:59:37;12.10;;;7.70;;
22778;SDS011;11556;51.194;3.800;2024-01-30T07:02:09;17.48;;;8.02;;
22778;SDS011;11556;51.194;3.800;2024-01-30T07:04:35;16.67;;;8.07;;
22778;SDS011;11556;51.194;3.800;2024-01-30T07:07:02;18.23;;;8.23;;
22778;SDS011;11556;51.194;3.800;2024-01-30T07:09:30;20.83;;;8.60;;
22778;SDS011;11556;51.194;3.800;2024-01-30T07:11:55;15.25;;;8.82;;
22778;SDS011;11556;51.194;3.800;2024-01-30T07:14:23;14.60;;;8.57;;
22778;SDS011;11556;51.194;3.800;2024-01-30T07:16:49;18.73;;;8.77;;
22778;SDS011;11556;51.194;3.800;2024-01-30T07:19:16;16.60;;;8.20;;
22778;SDS011;11556;51.194;3.800;2024-01-30T07:21:42;17.63;;;9.00;;
22778;SDS011;11556;51.194;3.800;2024-01-30T07:24:07;16.73;;;8.60;;
22778;SDS011;11556;51.194;3.800;2024-01-30T07:26:33;15.50;;;7.95;;
22778;SDS011;11556;51.194;3.800;2024-01-30T07:29:00;16.58;;;8.63;;
22778;SDS011;11556;51.194;3.800;2024-01-30T07:31:26;16.15;;;8.50;;
22778;SDS011;11556;51.194;3.800;2024-01-30T07:33:51;19.52;;;8.90;;
22778;SDS011;11556;51.194;3.800;2024-01-30T07:36:18;21.55;;;10.05;;
22778;SDS011;11556;51.194;3.800;2024-01-30T07:38:43;15.38;;;8.68;;
22778;SDS011;11556;51.194;3.800;2024-01-30T07:41:09;19.65;;;9.35;;
22778;SDS011;11556;51.194;3.800;2024-01-30T07:43:34;20.08;;;9.48;;
22778;SDS011;11556;51.194;3.800;2024-01-30T07:46:01;21.20;;;8.77;;
22778;SDS011;11556;51.194;3.800;2024-01-30T07:48:27;16.83;;;9.00;;
22778;SDS011;11556;51.194;3.800;2024-01-30T07:50:53;17.02;;;8.13;;
22778;SDS011;11556;51.194;3.800;2024-01-30T07:53:19;14.57;;;8.10;;
22778;SDS011;11556;51.194;3.800;2024-01-30T07:55:45;14.98;;;8.63;;
22778;SDS011;11556;51.194;3.800;2024-01-30T07:58:12;14.75;;;8.77;;
22778;SDS011;11556;51.194;3.800;2024-01-30T08:00:37;17.48;;;9.10;;
22778;SDS011;11556;51.194;3.800;2024-01-30T08:03:04;17.10;;;8.65;;
22778;SDS011;11556;51.194;3.800;2024-01-30T08:05:30;18.35;;;9.70;;
22778;SDS011;11556;51.194;3.800;2024-01-30T08:07:56;19.60;;;9.52;;
22778;SDS011;11556;51.194;3.800;2024-01-30T08:10:21;21.65;;;9.65;;
22778;SDS011;11556;51.194;3.800;2024-01-30T08:12:47;18.35;;;9.70;;
22778;SDS011;11556;51.194;3.800;2024-01-30T08:15:14;12.82;;;8.35;;
22778;SDS011;11556;51.194;3.800;2024-01-30T08:17:40;17.95;;;8.95;;
22778;SDS011;11556;51.194;3.800;2024-01-30T08:20:06;17.73;;;8.77;;
22778;SDS011;11556;51.194;3.800;2024-01-30T08:22:33;13.48;;;9.30;;
22778;SDS011;11556;51.194;3.800;2024-01-30T08:24:59;17.33;;;9.18;;
22778;SDS011;11556;51.194;3.800;2024-01-30T08:27:24;17.00;;;8.90;;
22778;SDS011;11556;51.194;3.800;2024-01-30T08:29:50;18.95;;;9.70;;
22778;SDS011;11556;51.194;3.800;2024-01-30T08:32:16;16.55;;;9.57;;
22778;SDS011;11556;51.194;3.800;2024-01-30T08:34:41;15.88;;;9.18;;
22778;SDS011;11556;51.194;3.800;2024-01-30T08:37:07;11.75;;;8.63;;
22778;SDS011;11556;51.194;3.800;2024-01-30T08:39:33;17.25;;;9.00;;
22778;SDS011;11556;51.194;3.800;2024-01-30T08:41:58;13.40;;;8.93;;
22778;SDS011;11556;51.194;3.800;2024-01-30T08:44:24;15.00;;;8.77;;
22778;SDS011;11556;51.194;3.800;2024-01-30T08:46:50;17.35;;;9.45;;
22778;SDS011;11556;51.194;3.800;2024-01-30T08:49:16;18.38;;;9.02;;
22778;SDS011;11556;51.194;3.800;2024-01-30T08:51:42;14.95;;;8.63;;
22778;SDS011;11556;51.194;3.800;2024-01-30T08:54:08;15.98;;;8.10;;
22778;SDS011;11556;51.194;3.800;2024-01-30T08:56:34;14.75;;;8.48;;
22778;SDS011;11556;51.194;3.800;2024-01-30T08:58:59;17.13;;;8.50;;
22778;SDS011;11556;51.194;3.800;2024-01-30T09:01:25;13.63;;;7.85;;
22778;SDS011;11556;51.194;3.800;2024-01-30T09:03:51;13.23;;;7.20;;
22778;SDS011;11556;51.194;3.800;2024-01-30T09:06:17;13.48;;;7.05;;
22778;SDS011;11556;51.194;3.800;2024-01-30T09:08:43;16.13;;;6.68;;
22778;SDS011;11556;51.194;3.800;2024-01-30T09:11:09;12.52;;;6.10;;
22778;SDS011;11556;51.194;3.800;2024-01-30T09:13:35;13.20;;;6.63;;
22778;SDS011;11556;51.194;3.800;2024-01-30T09:16:01;8.68;;;5.22;;
22778;SDS011;11556;51.194;3.800;2024-01-30T09:18:27;15.02;;;6.32;;
22778;SDS011;11556;51.194;3.800;2024-01-30T09:20:52;14.90;;;6.20;;
22778;SDS011;11556;51.194;3.800;2024-01-30T09:23:18;10.70;;;5.55;;
22778;SDS011;11556;51.194;3.800;2024-01-30T09:25:44;15.07;;;5.40;;
22778;SDS011;11556;51.194;3.800;2024-01-30T09:28:10;9.20;;;3.42;;
22778;SDS011;11556;51.194;3.800;2024-01-30T09:30:36;7.32;;;2.70;;
22778;SDS011;11556;51.194;3.800;2024-01-30T09:33:02;9.73;;;2.28;;
22778;SDS011;11556;51.194;3.800;2024-01-30T09:35:27;4.93;;;2.42;;
22778;SDS011;11556;51.194;3.800;2024-01-30T09:37:54;4.63;;;1.65;;
22778;SDS011;11556;51.194;3.800;2024-01-30T09:40:20;4.20;;;1.65;;
22778;SDS011;11556;51.194;3.800;2024-01-30T09:42:46;6.10;;;1.50;;
22778;SDS011;11556;51.194;3.800;2024-01-30T09:45:15;7.55;;;1.60;;
22778;SDS011;11556;51.194;3.800;2024-01-30T09:47:43;6.43;;;1.70;;
22778;SDS011;11556;51.194;3.800;2024-01-30T09:50:11;3.90;;;1.00;;
22778;SDS011;11556;51.194;3.800;2024-01-30T09:52:38;5.95;;;1.20;;
22778;SDS011;11556;51.194;3.800;2024-01-30T09:55:04;4.10;;;1.20;;
22778;SDS011;11556;51.194;3.800;2024-01-30T09:57:31;5.85;;;1.58;;
22778;SDS011;11556;51.194;3.800;2024-01-30T09:59:56;5.57;;;1.10;;
22778;SDS011;11556;51.194;3.800;2024-01-30T10:02:22;1.50;;;0.70;;
22778;SDS011;11556;51.194;3.800;2024-01-30T10:04:48;2.20;;;0.85;;
22778;SDS011;11556;51.194;3.800;2024-01-30T10:07:15;2.90;;;0.60;;
22778;SDS011;11556;51.194;3.800;2024-01-30T10:09:41;1.98;;;0.70;;
22778;SDS011;11556;51.194;3.800;2024-01-30T10:12:07;3.10;;;0.60;;
22778;SDS011;11556;51.194;3.800;2024-01-30T10:14:39;1.75;;;0.40;;
22778;SDS011;11556;51.194;3.800;2024-01-30T10:17:06;2.03;;;0.45;;
22778;SDS011;11556;51.194;3.800;2024-01-30T10:19:39;3.45;;;0.60;;
22778;SDS011;11556;51.194;3.800;2024-01-30T10:22:05;1.50;;;0.50;;
22778;SDS011;11556;51.194;3.800;2024-01-30T10:24:31;3.65;;;0.70;;
22778;SDS011;11556;51.194;3.800;2024-01-30T10:26:59;5.55;;;0.80;;
22778;SDS011;11556;51.194;3.800;2024-01-30T10:29:24;1.65;;;0.40;;
22778;SDS011;11556;51.194;3.800;2024-01-30T10:32:03;2.67;;;0.43;;
22778;SDS011;11556;51.194;3.800;2024-01-30T10:34:29;2.83;;;0.43;;
22778;SDS011;11556;51.194;3.800;2024-01-30T10:37:16;1.05;;;0.40;;
22778;SDS011;11556;51.194;3.800;2024-01-30T10:39:43;4.95;;;0.40;;
22778;SDS011;11556;51.194;3.800;2024-01-30T10:42:14;5.85;;;0.60;;
22778;SDS011;11556;51.194;3.800;2024-01-30T10:47:21;1.13;;;0.30;;
22778;SDS011;11556;51.194;3.800;2024-01-30T10:49:51;4.43;;;0.80;;
22778;SDS011;11556;51.194;3.800;2024-01-30T10:52:18;3.97;;;1.13;;
22778;SDS011;11556;51.194;3.800;2024-01-30T10:54:45;6.25;;;0.80;;
22778;SDS011;11556;51.194;3.800;2024-01-30T10:57:12;2.88;;;0.95;;
22778;SDS011;11556;51.194;3.800;2024-01-30T10:59:40;6.80;;;1.00;;
22778;SDS011;11556;51.194;3.800;2024-01-30T11:02:07;1.52;;;0.70;;
22778;SDS011;11556;51.194;3.800;2024-01-30T11:04:38;3.13;;;1.10;;
22778;SDS011;11556;51.194;3.800;2024-01-30T11:09:49;11.25;;;4.05;;
22778;SDS011;11556;51.194;3.800;2024-01-30T11:12:25;8.43;;;1.90;;
22778;SDS011;11556;51.194;3.800;2024-01-30T11:15:07;2.25;;;1.00;;
22778;SDS011;11556;51.194;3.800;2024-01-30T11:20:14;4.28;;;1.02;;
22778;SDS011;11556;51.194;3.800;2024-01-30T11:22:41;9.27;;;3.43;;
22778;SDS011;11556;51.194;3.800;2024-01-30T11:25:16;5.30;;;1.83;;
22778;SDS011;11556;51.194;3.800;2024-01-30T11:27:44;6.20;;;2.20;;
22778;SDS011;11556;51.194;3.800;2024-01-30T11:30:11;4.35;;;2.92;;
22778;SDS011;11556;51.194;3.800;2024-01-30T11:35:32;7.32;;;2.70;;
22778;SDS011;11556;51.194;3.800;2024-01-30T11:37:59;5.13;;;1.52;;
22778;SDS011;11556;51.194;3.800;2024-01-30T11:40:28;13.55;;;6.90;;
22778;SDS011;11556;51.194;3.800;2024-01-30T11:42:55;8.02;;;1.75;;
22778;SDS011;11556;51.194;3.800;2024-01-30T11:45:23;3.63;;;1.30;;
22778;SDS011;11556;51.194;3.800;2024-01-30T11:47:49;5.35;;;2.63;;
22778;SDS011;11556;51.194;3.800;2024-01-30T11:50:15;2.90;;;1.27;;
22778;SDS011;11556;51.194;3.800;2024-01-30T11:52:41;4.35;;;1.35;;
22778;SDS011;11556;51.194;3.800;2024-01-30T11:55:08;3.78;;;1.00;;
22778;SDS011;11556;51.194;3.800;2024-01-30T11:57:35;6.95;;;1.08;;
22778;SDS011;11556;51.194;3.800;2024-01-30T12:00:05;4.45;;;1.00;;
22778;SDS011;11556;51.194;3.800;2024-01-30T12:02:39;4.50;;;1.00;;
22778;SDS011;11556;51.194;3.800;2024-01-30T12:05:05;2.25;;;0.98;;
22778;SDS011;11556;51.194;3.800;2024-01-30T12:07:32;2.95;;;0.80;;
22778;SDS011;11556;51.194;3.800;2024-01-30T12:09:58;3.03;;;1.00;;
22778;SDS011;11556;51.194;3.800;2024-01-30T12:12:24;7.20;;;1.00;;
22778;SDS011;11556;51.194;3.800;2024-01-30T12:14:51;7.55;;;1.20;;
22778;SDS011;11556;51.194;3.800;2024-01-30T12:17:27;4.53;;;0.82;;
22778;SDS011;11556;51.194;3.800;2024-01-30T12:20:06;2.33;;;0.80;;
22778;SDS011;11556;51.194;3.800;2024-01-30T12:25:25;3.55;;;1.00;;
22778;SDS011;11556;51.194;3.800;2024-01-30T12:27:50;5.00;;;1.10;;
22778;SDS011;11556;51.194;3.800;2024-01-30T12:30:16;3.33;;;1.23;;
22778;SDS011;11556;51.194;3.800;2024-01-30T12:32:43;5.13;;;0.80;;
22778;SDS011;11556;51.194;3.800;2024-01-30T12:35:10;3.72;;;1.33;;
22778;SDS011;11556;51.194;3.800;2024-01-30T12:37:36;6.50;;;1.33;;
22778;SDS011;11556;51.194;3.800;2024-01-30T12:40:02;8.38;;;1.50;;
22778;SDS011;11556;51.194;3.800;2024-01-30T12:42:28;5.20;;;0.93;;
22778;SDS011;11556;51.194;3.800;2024-01-30T12:44:56;5.32;;;0.95;;
22778;SDS011;11556;51.194;3.800;2024-01-30T12:47:23;4.43;;;1.02;;
22778;SDS011;11556;51.194;3.800;2024-01-30T12:49:50;4.97;;;0.70;;
22778;SDS011;11556;51.194;3.800;2024-01-30T12:52:19;4.63;;;0.90;;
22778;SDS011;11556;51.194;3.800;2024-01-30T12:54:46;2.45;;;0.70;;
22778;SDS011;11556;51.194;3.800;2024-01-30T12:57:12;3.22;;;1.10;;
22778;SDS011;11556;51.194;3.800;2024-01-30T12:59:38;5.97;;;1.00;;
22778;SDS011;11556;51.194;3.800;2024-01-30T13:02:04;4.32;;;1.05;;
22778;SDS011;11556;51.194;3.800;2024-01-30T13:04:30;8.10;;;1.05;;
22778;SDS011;11556;51.194;3.800;2024-01-30T13:06:56;4.80;;;0.90;;
22778;SDS011;11556;51.194;3.800;2024-01-30T13:09:22;3.33;;;1.10;;
22778;SDS011;11556;51.194;3.800;2024-01-30T13:11:49;3.67;;;0.68;;
22778;SDS011;11556;51.194;3.800;2024-01-30T13:14:15;7.20;;;0.80;;
22778;SDS011;11556;51.194;3.800;2024-01-30T13:16:41;3.95;;;0.90;;
22778;SDS011;11556;51.194;3.800;2024-01-30T13:19:06;7.70;;;2.97;;
22778;SDS011;11556;51.194;3.800;2024-01-30T13:21:32;8.10;;;1.98;;
22778;SDS011;11556;51.194;3.800;2024-01-30T13:23:58;4.53;;;0.88;;
22778;SDS011;11556;51.194;3.800;2024-01-30T13:26:23;3.80;;;1.17;;
22778;SDS011;11556;51.194;3.800;2024-01-30T13:28:49;6.80;;;1.40;;
22778;SDS011;11556;51.194;3.800;2024-01-30T13:31:14;6.78;;;1.83;;
22778;SDS011;11556;51.194;3.800;2024-01-30T13:33:41;7.75;;;1.55;;
22778;SDS011;11556;51.194;3.800;2024-01-30T13:36:07;5.05;;;1.63;;
22778;SDS011;11556;51.194;3.800;2024-01-30T13:38:34;5.90;;;1.60;;
22778;SDS011;11556;51.194;3.800;2024-01-30T13:41:00;5.95;;;1.40;;
22778;SDS011;11556;51.194;3.800;2024-01-30T13:43:26;6.38;;;1.92;;
22778;SDS011;11556;51.194;3.800;2024-01-30T13:45:52;4.00;;;1.80;;
22778;SDS011;11556;51.194;3.800;2024-01-30T13:48:17;5.40;;;2.05;;
22778;SDS011;11556;51.194;3.800;2024-01-30T13:50:43;7.00;;;3.00;;
22778;SDS011;11556;51.194;3.800;2024-01-30T13:53:11;6.72;;;2.70;;
22778;SDS011;11556;51.194;3.800;2024-01-30T13:55:37;8.40;;;2.60;;
22778;SDS011;11556;51.194;3.800;2024-01-30T13:58:04;12.77;;;2.60;;
22778;SDS011;11556;51.194;3.800;2024-01-30T14:00:30;6.10;;;3.20;;
22778;SDS011;11556;51.194;3.800;2024-01-30T14:02:56;9.18;;;3.88;;
22778;SDS011;11556;51.194;3.800;2024-01-30T14:05:23;8.25;;;3.55;;
22778;SDS011;11556;51.194;3.800;2024-01-30T14:07:50;8.00;;;3.13;;
22778;SDS011;11556;51.194;3.800;2024-01-30T14:10:16;6.85;;;3.40;;
22778;SDS011;11556;51.194;3.800;2024-01-30T14:12:43;10.23;;;3.03;;
22778;SDS011;11556;51.194;3.800;2024-01-30T14:15:09;11.10;;;3.42;;
22778;SDS011;11556;51.194;3.800;2024-01-30T14:17:36;12.98;;;3.75;;
22778;SDS011;11556;51.194;3.800;2024-01-30T14:20:04;9.35;;;4.28;;
22778;SDS011;11556;51.194;3.800;2024-01-30T14:22:31;7.57;;;4.03;;
22778;SDS011;11556;51.194;3.800;2024-01-30T14:24:58;9.38;;;4.40;;
22778;SDS011;11556;51.194;3.800;2024-01-30T14:27:24;11.43;;;4.25;;
22778;SDS011;11556;51.194;3.800;2024-01-30T14:29:50;10.07;;;4.60;;
22778;SDS011;11556;51.194;3.800;2024-01-30T14:32:15;10.45;;;4.90;;
22778;SDS011;11556;51.194;3.800;2024-01-30T14:34:41;10.13;;;4.72;;
22778;SDS011;11556;51.194;3.800;2024-01-30T14:37:07;8.68;;;5.22;;
22778;SDS011;11556;51.194;3.800;2024-01-30T14:39:33;8.48;;;4.40;;
22778;SDS011;11556;51.194;3.800;2024-01-30T14:41:59;10.55;;;5.20;;
22778;SDS011;11556;51.194;3.800;2024-01-30T14:44:24;11.60;;;4.45;;
22778;SDS011;11556;51.194;3.800;2024-01-30T14:46:50;10.63;;;5.28;;